sensor_id;sensor_type;location;lat;lon;timestamp;P1;durP1;ratioP1;P2;durP2;ratioP2
12228;SDS011;6177;52.402;9.800;2023-06-26T00:00:06;6.63;;;6.15;;
12228;SDS011;6177;52.402;9.800;2023-06-26T00:02:57;6.50;;;6.00;;
12228;SDS011;6177;52.402;9.800;2023-06-26T00:05:49;6.32;;;5.85;;
12228;SDS011;6177;52.402;9.800;2023-06-26T00:08:40;6.13;;;5.72;;
12228;SDS011;6177;52.402;9.800;2023-06-26T00:11:31;5.85;;;5.55;;
12228;SDS011;6177;52.402;9.800;2023-06-26T00:14:23;6.40;;;6.10;;
12228;SDS011;6177;52.402;9.800;2023-06-26T00:17:14;6.47;;;6.05;;
12228;SDS011;6177;52.402;9.800;2023-06-26T00:20:05;6.63;;;6.32;;
12228;SDS011;6177;52.402;9.800;2023-06-26T00:23:02;5.38;;;5.18;;
12228;SDS011;6177;52.402;9.800;2023-06-26T00:25:58;6.38;;;6.07;;
12228;SDS011;6177;52.402;9.800;2023-06-26T00:28:48;6.45;;;6.15;;
12228;SDS011;6177;52.402;9.800;2023-06-26T00:31:39;6.65;;;6.25;;
12228;SDS011;6177;52.402;9.800;2023-06-26T00:34:30;5.97;;;5.63;;
12228;SDS011;6177;52.402;9.800;2023-06-26T00:37:22;6.30;;;5.90;;
12228;SDS011;6177;52.402;9.800;2023-06-26T00:40:12;6.32;;;6.03;;
12228;SDS011;6177;52.402;9.800;2023-06-26T00:43:03;6.00;;;5.80;;
12228;SDS011;6177;52.402;9.800;2023-06-26T00:45:54;6.10;;;5.60;;
12228;SDS011;6177;52.402;9.800;2023-06-26T00:48:46;6.30;;;6.00;;
12228;SDS011;6177;52.402;9.800;2023-06-26T00:51:38;7.40;;;6.00;;
12228;SDS011;6177;52.402;9.800;2023-06-26T00:54:29;7.30;;;6.75;;
12228;SDS011;6177;52.402;9.800;2023-06-26T00:57:20;6.63;;;6.22;;
12228;SDS011;6177;52.402;9.800;2023-06-26T01:00:12;6.15;;;5.88;;
12228;SDS011;6177;52.402;9.800;2023-06-26T01:03:03;6.07;;;5.85;;
12228;SDS011;6177;52.402;9.800;2023-06-26T01:05:56;6.75;;;6.35;;
12228;SDS011;6177;52.402;9.800;2023-06-26T01:08:46;6.30;;;6.00;;
12228;SDS011;6177;52.402;9.800;2023-06-26T01:11:37;6.43;;;5.93;;
12228;SDS011;6177;52.402;9.800;2023-06-26T01:14:28;6.40;;;6.18;;
12228;SDS011;6177;52.402;9.800;2023-06-26T01:17:22;6.57;;;6.00;;
12228;SDS011;6177;52.402;9.800;2023-06-26T01:20:13;7.10;;;6.68;;
12228;SDS011;6177;52.402;9.800;2023-06-26T01:23:07;6.63;;;6.22;;
12228;SDS011;6177;52.402;9.800;2023-06-26T01:28:58;6.32;;;5.93;;
12228;SDS011;6177;52.402;9.800;2023-06-26T01:31:49;7.07;;;6.47;;
12228;SDS011;6177;52.402;9.800;2023-06-26T01:34:41;6.35;;;6.05;;
12228;SDS011;6177;52.402;9.800;2023-06-26T01:37:33;6.68;;;6.35;;
12228;SDS011;6177;52.402;9.800;2023-06-26T01:40:23;6.45;;;6.15;;
12228;SDS011;6177;52.402;9.800;2023-06-26T01:43:16;6.93;;;6.53;;
12228;SDS011;6177;52.402;9.800;2023-06-26T01:46:14;6.82;;;6.38;;
12228;SDS011;6177;52.402;9.800;2023-06-26T01:49:09;6.90;;;6.40;;
12228;SDS011;6177;52.402;9.800;2023-06-26T01:55:04;5.82;;;5.55;;
12228;SDS011;6177;52.402;9.800;2023-06-26T01:57:56;6.30;;;6.00;;
12228;SDS011;6177;52.402;9.800;2023-06-26T02:00:46;6.30;;;5.93;;
12228;SDS011;6177;52.402;9.800;2023-06-26T02:03:38;6.43;;;6.03;;
12228;SDS011;6177;52.402;9.800;2023-06-26T02:06:29;5.70;;;5.30;;
12228;SDS011;6177;52.402;9.800;2023-06-26T02:09:20;6.20;;;5.78;;
12228;SDS011;6177;52.402;9.800;2023-06-26T02:12:11;6.15;;;5.75;;
12228;SDS011;6177;52.402;9.800;2023-06-26T02:15:02;6.10;;;5.80;;
12228;SDS011;6177;52.402;9.800;2023-06-26T02:17:53;6.40;;;6.10;;
12228;SDS011;6177;52.402;9.800;2023-06-26T02:20:44;6.20;;;5.88;;
12228;SDS011;6177;52.402;9.800;2023-06-26T02:23:36;6.40;;;6.10;;
12228;SDS011;6177;52.402;9.800;2023-06-26T02:26:29;6.43;;;5.93;;
12228;SDS011;6177;52.402;9.800;2023-06-26T02:29:19;6.10;;;5.80;;
12228;SDS011;6177;52.402;9.800;2023-06-26T02:32:10;6.10;;;5.72;;
12228;SDS011;6177;52.402;9.800;2023-06-26T02:35:01;6.20;;;5.90;;
12228;SDS011;6177;52.402;9.800;2023-06-26T02:37:51;6.32;;;6.03;;
12228;SDS011;6177;52.402;9.800;2023-06-26T02:40:42;6.30;;;5.70;;
12228;SDS011;6177;52.402;9.800;2023-06-26T02:43:33;6.40;;;6.00;;
12228;SDS011;6177;52.402;9.800;2023-06-26T02:46:25;6.18;;;5.78;;
12228;SDS011;6177;52.402;9.800;2023-06-26T02:49:16;6.20;;;5.88;;
12228;SDS011;6177;52.402;9.800;2023-06-26T02:52:08;5.68;;;5.28;;
12228;SDS011;6177;52.402;9.800;2023-06-26T02:54:58;5.82;;;5.53;;
12228;SDS011;6177;52.402;9.800;2023-06-26T02:57:49;5.93;;;5.13;;
12228;SDS011;6177;52.402;9.800;2023-06-26T03:00:40;6.00;;;5.50;;
12228;SDS011;6177;52.402;9.800;2023-06-26T03:03:34;5.97;;;5.57;;
12228;SDS011;6177;52.402;9.800;2023-06-26T03:06:31;5.53;;;5.25;;
12228;SDS011;6177;52.402;9.800;2023-06-26T03:09:22;5.63;;;5.22;;
12228;SDS011;6177;52.402;9.800;2023-06-26T03:12:13;5.75;;;5.53;;
12228;SDS011;6177;52.402;9.800;2023-06-26T03:15:04;5.38;;;5.15;;
12228;SDS011;6177;52.402;9.800;2023-06-26T03:17:55;5.60;;;5.30;;
12228;SDS011;6177;52.402;9.800;2023-06-26T03:20:49;5.72;;;5.32;;
12228;SDS011;6177;52.402;9.800;2023-06-26T03:23:40;6.13;;;5.57;;
12228;SDS011;6177;52.402;9.800;2023-06-26T03:26:31;5.05;;;4.85;;
12228;SDS011;6177;52.402;9.800;2023-06-26T03:29:23;5.00;;;4.80;;
12228;SDS011;6177;52.402;9.800;2023-06-26T03:32:14;4.78;;;4.45;;
12228;SDS011;6177;52.402;9.800;2023-06-26T03:35:05;4.60;;;4.35;;
12228;SDS011;6177;52.402;9.800;2023-06-26T03:37:57;4.43;;;4.22;;
12228;SDS011;6177;52.402;9.800;2023-06-26T03:40:48;5.65;;;5.25;;
12228;SDS011;6177;52.402;9.800;2023-06-26T03:43:38;4.80;;;4.60;;
12228;SDS011;6177;52.402;9.800;2023-06-26T03:46:42;4.47;;;4.30;;
12228;SDS011;6177;52.402;9.800;2023-06-26T03:49:32;5.05;;;4.85;;
12228;SDS011;6177;52.402;9.800;2023-06-26T03:52:23;5.18;;;4.88;;
12228;SDS011;6177;52.402;9.800;2023-06-26T03:55:15;4.68;;;4.38;;
12228;SDS011;6177;52.402;9.800;2023-06-26T03:58:08;4.93;;;4.35;;
12228;SDS011;6177;52.402;9.800;2023-06-26T04:00:58;4.07;;;3.97;;
12228;SDS011;6177;52.402;9.800;2023-06-26T04:03:49;4.40;;;4.20;;
12228;SDS011;6177;52.402;9.800;2023-06-26T04:06:41;4.88;;;4.68;;
12228;SDS011;6177;52.402;9.800;2023-06-26T04:09:31;4.18;;;3.97;;
12228;SDS011;6177;52.402;9.800;2023-06-26T04:12:21;4.40;;;4.20;;
12228;SDS011;6177;52.402;9.800;2023-06-26T04:15:11;4.90;;;4.50;;
12228;SDS011;6177;52.402;9.800;2023-06-26T04:18:02;4.45;;;4.25;;
12228;SDS011;6177;52.402;9.800;2023-06-26T04:21:04;5.03;;;4.63;;
12228;SDS011;6177;52.402;9.800;2023-06-26T04:23:58;3.80;;;3.67;;
12228;SDS011;6177;52.402;9.800;2023-06-26T04:26:49;4.88;;;4.47;;
12228;SDS011;6177;52.402;9.800;2023-06-26T04:29:40;4.90;;;4.55;;
12228;SDS011;6177;52.402;9.800;2023-06-26T04:32:31;4.15;;;3.85;;
12228;SDS011;6177;52.402;9.800;2023-06-26T04:35:22;4.57;;;4.25;;
12228;SDS011;6177;52.402;9.800;2023-06-26T04:38:13;3.70;;;3.60;;
12228;SDS011;6177;52.402;9.800;2023-06-26T04:41:04;4.45;;;4.15;;
12228;SDS011;6177;52.402;9.800;2023-06-26T04:43:55;4.30;;;3.92;;
12228;SDS011;6177;52.402;9.800;2023-06-26T04:46:46;4.28;;;4.07;;
12228;SDS011;6177;52.402;9.800;2023-06-26T04:49:37;4.47;;;4.18;;
12228;SDS011;6177;52.402;9.800;2023-06-26T04:52:27;4.35;;;4.15;;
12228;SDS011;6177;52.402;9.800;2023-06-26T04:55:18;4.32;;;4.03;;
12228;SDS011;6177;52.402;9.800;2023-06-26T04:58:11;4.20;;;4.05;;
12228;SDS011;6177;52.402;9.800;2023-06-26T05:01:03;4.43;;;4.22;;
12228;SDS011;6177;52.402;9.800;2023-06-26T05:03:57;5.13;;;4.20;;
12228;SDS011;6177;52.402;9.800;2023-06-26T05:06:47;3.85;;;3.60;;
12228;SDS011;6177;52.402;9.800;2023-06-26T05:09:38;4.40;;;4.20;;
12228;SDS011;6177;52.402;9.800;2023-06-26T05:12:29;4.05;;;3.85;;
12228;SDS011;6177;52.402;9.800;2023-06-26T05:15:20;4.18;;;3.88;;
12228;SDS011;6177;52.402;9.800;2023-06-26T05:18:11;4.18;;;4.00;;
12228;SDS011;6177;52.402;9.800;2023-06-26T05:21:01;4.35;;;4.10;;
12228;SDS011;6177;52.402;9.800;2023-06-26T05:23:53;4.60;;;4.30;;
12228;SDS011;6177;52.402;9.800;2023-06-26T05:26:46;4.50;;;4.20;;
12228;SDS011;6177;52.402;9.800;2023-06-26T05:29:38;4.45;;;4.35;;
12228;SDS011;6177;52.402;9.800;2023-06-26T05:32:28;4.25;;;4.05;;
12228;SDS011;6177;52.402;9.800;2023-06-26T05:35:20;4.40;;;4.10;;
12228;SDS011;6177;52.402;9.800;2023-06-26T05:38:14;4.80;;;4.50;;
12228;SDS011;6177;52.402;9.800;2023-06-26T05:41:05;4.65;;;4.35;;
12228;SDS011;6177;52.402;9.800;2023-06-26T05:43:57;4.40;;;4.20;;
12228;SDS011;6177;52.402;9.800;2023-06-26T05:46:48;4.38;;;3.97;;
12228;SDS011;6177;52.402;9.800;2023-06-26T05:49:38;4.70;;;4.50;;
12228;SDS011;6177;52.402;9.800;2023-06-26T05:52:29;4.35;;;3.90;;
12228;SDS011;6177;52.402;9.800;2023-06-26T05:55:20;4.22;;;3.92;;
12228;SDS011;6177;52.402;9.800;2023-06-26T05:58:11;5.32;;;4.82;;
12228;SDS011;6177;52.402;9.800;2023-06-26T06:01:02;4.43;;;4.22;;
12228;SDS011;6177;52.402;9.800;2023-06-26T06:03:53;4.82;;;4.45;;
12228;SDS011;6177;52.402;9.800;2023-06-26T06:06:44;3.90;;;3.70;;
12228;SDS011;6177;52.402;9.800;2023-06-26T06:09:35;4.75;;;4.53;;
12228;SDS011;6177;52.402;9.800;2023-06-26T06:12:26;4.68;;;4.47;;
12228;SDS011;6177;52.402;9.800;2023-06-26T06:15:17;5.07;;;4.75;;
12228;SDS011;6177;52.402;9.800;2023-06-26T06:18:07;4.38;;;4.07;;
12228;SDS011;6177;52.402;9.800;2023-06-26T06:20:57;4.85;;;4.55;;
12228;SDS011;6177;52.402;9.800;2023-06-26T06:23:49;4.75;;;4.35;;
12228;SDS011;6177;52.402;9.800;2023-06-26T06:26:40;4.80;;;4.50;;
12228;SDS011;6177;52.402;9.800;2023-06-26T06:29:31;4.45;;;4.25;;
12228;SDS011;6177;52.402;9.800;2023-06-26T06:32:22;4.53;;;4.32;;
12228;SDS011;6177;52.402;9.800;2023-06-26T06:35:13;4.70;;;4.50;;
12228;SDS011;6177;52.402;9.800;2023-06-26T06:38:04;5.07;;;4.75;;
12228;SDS011;6177;52.402;9.800;2023-06-26T06:40:55;4.88;;;4.38;;
12228;SDS011;6177;52.402;9.800;2023-06-26T06:43:46;4.57;;;4.38;;
12228;SDS011;6177;52.402;9.800;2023-06-26T06:46:36;5.53;;;5.03;;
12228;SDS011;6177;52.402;9.800;2023-06-26T06:49:28;4.47;;;4.28;;
12228;SDS011;6177;52.402;9.800;2023-06-26T06:52:19;4.82;;;4.50;;
12228;SDS011;6177;52.402;9.800;2023-06-26T06:55:10;4.68;;;4.47;;
12228;SDS011;6177;52.402;9.800;2023-06-26T06:58:01;4.47;;;4.38;;
12228;SDS011;6177;52.402;9.800;2023-06-26T07:00:51;4.72;;;4.40;;
12228;SDS011;6177;52.402;9.800;2023-06-26T07:03:43;4.85;;;4.45;;
12228;SDS011;6177;52.402;9.800;2023-06-26T07:06:34;4.55;;;4.35;;
12228;SDS011;6177;52.402;9.800;2023-06-26T07:09:25;4.95;;;4.75;;
12228;SDS011;6177;52.402;9.800;2023-06-26T07:12:16;5.20;;;4.80;;
12228;SDS011;6177;52.402;9.800;2023-06-26T07:15:07;6.57;;;5.38;;
12228;SDS011;6177;52.402;9.800;2023-06-26T07:17:58;5.00;;;4.80;;
12228;SDS011;6177;52.402;9.800;2023-06-26T07:20:49;5.22;;;4.72;;
12228;SDS011;6177;52.402;9.800;2023-06-26T07:23:40;5.00;;;4.45;;
12228;SDS011;6177;52.402;9.800;2023-06-26T07:26:31;5.10;;;4.65;;
12228;SDS011;6177;52.402;9.800;2023-06-26T07:29:22;4.85;;;4.63;;
12228;SDS011;6177;52.402;9.800;2023-06-26T07:32:13;4.93;;;4.72;;
12228;SDS011;6177;52.402;9.800;2023-06-26T07:35:04;5.55;;;5.25;;
12228;SDS011;6177;52.402;9.800;2023-06-26T07:37:54;5.18;;;4.82;;
12228;SDS011;6177;52.402;9.800;2023-06-26T07:40:45;5.10;;;4.90;;
12228;SDS011;6177;52.402;9.800;2023-06-26T07:43:36;5.90;;;5.60;;
12228;SDS011;6177;52.402;9.800;2023-06-26T07:46:27;5.13;;;4.93;;
12228;SDS011;6177;52.402;9.800;2023-06-26T07:49:18;4.40;;;4.20;;
12228;SDS011;6177;52.402;9.800;2023-06-26T07:52:09;5.32;;;5.03;;
12228;SDS011;6177;52.402;9.800;2023-06-26T07:55:03;5.63;;;5.22;;
12228;SDS011;6177;52.402;9.800;2023-06-26T07:57:55;5.25;;;4.90;;
12228;SDS011;6177;52.402;9.800;2023-06-26T08:00:46;5.22;;;5.00;;
12228;SDS011;6177;52.402;9.800;2023-06-26T08:03:37;5.60;;;5.25;;
12228;SDS011;6177;52.402;9.800;2023-06-26T08:06:28;5.50;;;5.10;;
12228;SDS011;6177;52.402;9.800;2023-06-26T08:09:19;6.00;;;5.65;;
12228;SDS011;6177;52.402;9.800;2023-06-26T08:12:11;5.00;;;4.80;;
12228;SDS011;6177;52.402;9.800;2023-06-26T08:15:02;4.80;;;4.63;;
12228;SDS011;6177;52.402;9.800;2023-06-26T08:17:53;5.13;;;4.93;;
12228;SDS011;6177;52.402;9.800;2023-06-26T08:20:44;5.53;;;5.18;;
12228;SDS011;6177;52.402;9.800;2023-06-26T08:23:35;5.50;;;5.13;;
12228;SDS011;6177;52.402;9.800;2023-06-26T08:26:26;5.65;;;5.35;;
12228;SDS011;6177;52.402;9.800;2023-06-26T08:29:17;5.47;;;5.05;;
12228;SDS011;6177;52.402;9.800;2023-06-26T08:32:08;5.22;;;5.00;;
12228;SDS011;6177;52.402;9.800;2023-06-26T08:34:59;5.55;;;5.07;;
12228;SDS011;6177;52.402;9.800;2023-06-26T08:37:50;4.97;;;4.78;;
12228;SDS011;6177;52.402;9.800;2023-06-26T08:40:40;5.38;;;5.00;;
12228;SDS011;6177;52.402;9.800;2023-06-26T08:43:32;5.82;;;5.35;;
12228;SDS011;6177;52.402;9.800;2023-06-26T08:46:24;5.30;;;5.10;;
12228;SDS011;6177;52.402;9.800;2023-06-26T08:49:20;5.68;;;5.28;;
12228;SDS011;6177;52.402;9.800;2023-06-26T08:52:33;5.53;;;5.13;;
12228;SDS011;6177;52.402;9.800;2023-06-26T08:55:27;6.00;;;5.70;;
12228;SDS011;6177;52.402;9.800;2023-06-26T08:58:17;5.57;;;5.20;;
12228;SDS011;6177;52.402;9.800;2023-06-26T09:01:09;5.63;;;5.25;;
12228;SDS011;6177;52.402;9.800;2023-06-26T09:04:00;5.97;;;5.68;;
12228;SDS011;6177;52.402;9.800;2023-06-26T09:06:51;6.38;;;5.78;;
12228;SDS011;6177;52.402;9.800;2023-06-26T09:09:42;6.13;;;5.82;;
12228;SDS011;6177;52.402;9.800;2023-06-26T09:12:33;6.65;;;6.25;;
12228;SDS011;6177;52.402;9.800;2023-06-26T09:15:23;5.95;;;5.50;;
12228;SDS011;6177;52.402;9.800;2023-06-26T09:18:16;7.35;;;6.65;;
12228;SDS011;6177;52.402;9.800;2023-06-26T09:21:09;7.00;;;6.60;;
12228;SDS011;6177;52.402;9.800;2023-06-26T09:24:00;7.70;;;6.95;;
12228;SDS011;6177;52.402;9.800;2023-06-26T09:26:51;7.35;;;6.85;;
12228;SDS011;6177;52.402;9.800;2023-06-26T09:29:42;7.82;;;7.20;;
12228;SDS011;6177;52.402;9.800;2023-06-26T09:32:35;7.60;;;7.07;;
12228;SDS011;6177;52.402;9.800;2023-06-26T09:35:28;7.03;;;6.53;;
12228;SDS011;6177;52.402;9.800;2023-06-26T09:38:20;8.15;;;7.32;;
12228;SDS011;6177;52.402;9.800;2023-06-26T09:41:12;6.30;;;5.93;;
12228;SDS011;6177;52.402;9.800;2023-06-26T09:44:06;8.05;;;7.38;;
12228;SDS011;6177;52.402;9.800;2023-06-26T09:46:58;8.77;;;8.07;;
12228;SDS011;6177;52.402;9.800;2023-06-26T09:49:49;8.30;;;7.53;;
12228;SDS011;6177;52.402;9.800;2023-06-26T09:52:41;9.10;;;8.45;;
12228;SDS011;6177;52.402;9.800;2023-06-26T09:55:34;8.32;;;7.60;;
12228;SDS011;6177;52.402;9.800;2023-06-26T09:58:26;8.52;;;8.00;;
12228;SDS011;6177;52.402;9.800;2023-06-26T10:01:18;8.63;;;7.93;;
12228;SDS011;6177;52.402;9.800;2023-06-26T10:04:09;7.95;;;7.55;;
12228;SDS011;6177;52.402;9.800;2023-06-26T10:07:06;8.15;;;7.45;;
12228;SDS011;6177;52.402;9.800;2023-06-26T10:10:01;8.18;;;7.57;;
12228;SDS011;6177;52.402;9.800;2023-06-26T10:12:54;8.13;;;7.47;;
12228;SDS011;6177;52.402;9.800;2023-06-26T10:15:50;8.98;;;8.27;;
12228;SDS011;6177;52.402;9.800;2023-06-26T10:18:42;9.85;;;8.85;;
12228;SDS011;6177;52.402;9.800;2023-06-26T10:21:34;9.85;;;8.95;;
12228;SDS011;6177;52.402;9.800;2023-06-26T10:24:25;10.45;;;9.65;;
12228;SDS011;6177;52.402;9.800;2023-06-26T10:27:18;9.13;;;8.32;;
12228;SDS011;6177;52.402;9.800;2023-06-26T10:30:11;11.68;;;8.27;;
12228;SDS011;6177;52.402;9.800;2023-06-26T10:33:05;7.20;;;6.40;;
12228;SDS011;6177;52.402;9.800;2023-06-26T10:36:11;6.40;;;6.00;;
12228;SDS011;6177;52.402;9.800;2023-06-26T10:39:04;7.57;;;6.88;;
12228;SDS011;6177;52.402;9.800;2023-06-26T10:41:57;9.50;;;8.00;;
12228;SDS011;6177;52.402;9.800;2023-06-26T10:44:59;8.93;;;8.20;;
12228;SDS011;6177;52.402;9.800;2023-06-26T10:48:00;10.48;;;9.63;;
12228;SDS011;6177;52.402;9.800;2023-06-26T10:50:51;11.23;;;10.30;;
12228;SDS011;6177;52.402;9.800;2023-06-26T10:53:44;11.43;;;10.52;;
12228;SDS011;6177;52.402;9.800;2023-06-26T10:56:59;10.90;;;9.90;;
12228;SDS011;6177;52.402;9.800;2023-06-26T11:00:34;11.60;;;10.57;;
12228;SDS011;6177;52.402;9.800;2023-06-26T11:03:22;12.00;;;10.07;;
12228;SDS011;6177;52.402;9.800;2023-06-26T11:06:15;10.57;;;9.57;;
12228;SDS011;6177;52.402;9.800;2023-06-26T11:09:08;12.15;;;11.05;;
12228;SDS011;6177;52.402;9.800;2023-06-26T11:12:05;12.10;;;10.73;;
12228;SDS011;6177;52.402;9.800;2023-06-26T11:14:56;11.18;;;10.18;;
12228;SDS011;6177;52.402;9.800;2023-06-26T11:17:47;11.32;;;10.30;;
12228;SDS011;6177;52.402;9.800;2023-06-26T11:20:38;12.77;;;11.55;;
12228;SDS011;6177;52.402;9.800;2023-06-26T11:23:29;10.75;;;9.82;;
12228;SDS011;6177;52.402;9.800;2023-06-26T11:26:20;10.15;;;9.25;;
12228;SDS011;6177;52.402;9.800;2023-06-26T11:29:14;9.80;;;8.93;;
12228;SDS011;6177;52.402;9.800;2023-06-26T11:32:05;9.90;;;8.90;;
12228;SDS011;6177;52.402;9.800;2023-06-26T11:34:58;11.32;;;9.15;;
12228;SDS011;6177;52.402;9.800;2023-06-26T11:37:49;8.80;;;8.02;;
12228;SDS011;6177;52.402;9.800;2023-06-26T11:40:40;8.13;;;7.45;;
12228;SDS011;6177;52.402;9.800;2023-06-26T11:43:31;8.38;;;7.80;;
12228;SDS011;6177;52.402;9.800;2023-06-26T11:46:23;9.65;;;8.60;;
12228;SDS011;6177;52.402;9.800;2023-06-26T11:49:15;8.48;;;7.78;;
12228;SDS011;6177;52.402;9.800;2023-06-26T11:52:06;8.18;;;7.38;;
12228;SDS011;6177;52.402;9.800;2023-06-26T11:54:57;8.50;;;7.75;;
12228;SDS011;6177;52.402;9.800;2023-06-26T11:57:55;7.90;;;7.30;;
12228;SDS011;6177;52.402;9.800;2023-06-26T12:00:47;6.60;;;6.20;;
12228;SDS011;6177;52.402;9.800;2023-06-26T12:03:37;6.07;;;5.60;;
12228;SDS011;6177;52.402;9.800;2023-06-26T12:06:29;6.05;;;5.45;;
12228;SDS011;6177;52.402;9.800;2023-06-26T12:09:21;4.60;;;4.40;;
12228;SDS011;6177;52.402;9.800;2023-06-26T12:12:14;3.47;;;3.28;;
12228;SDS011;6177;52.402;9.800;2023-06-26T12:15:07;3.67;;;3.47;;
12228;SDS011;6177;52.402;9.800;2023-06-26T12:17:58;4.03;;;3.42;;
12228;SDS011;6177;52.402;9.800;2023-06-26T12:20:50;3.47;;;3.28;;
12228;SDS011;6177;52.402;9.800;2023-06-26T12:23:41;3.20;;;3.00;;
12228;SDS011;6177;52.402;9.800;2023-06-26T12:26:32;3.22;;;3.03;;
12228;SDS011;6177;52.402;9.800;2023-06-26T12:29:30;3.95;;;2.72;;
12228;SDS011;6177;52.402;9.800;2023-06-26T12:32:23;4.07;;;3.25;;
12228;SDS011;6177;52.402;9.800;2023-06-26T12:35:16;4.20;;;3.80;;
12228;SDS011;6177;52.402;9.800;2023-06-26T12:38:09;4.22;;;3.83;;
12228;SDS011;6177;52.402;9.800;2023-06-26T12:41:05;3.47;;;3.20;;
12228;SDS011;6177;52.402;9.800;2023-06-26T12:43:56;4.03;;;3.30;;
12228;SDS011;6177;52.402;9.800;2023-06-26T12:46:47;3.92;;;3.63;;
12228;SDS011;6177;52.402;9.800;2023-06-26T12:49:44;5.03;;;3.80;;
12228;SDS011;6177;52.402;9.800;2023-06-26T12:52:36;4.30;;;3.90;;
12228;SDS011;6177;52.402;9.800;2023-06-26T12:55:27;3.53;;;3.33;;
12228;SDS011;6177;52.402;9.800;2023-06-26T12:58:18;3.13;;;2.92;;
12228;SDS011;6177;52.402;9.800;2023-06-26T13:01:08;3.53;;;3.22;;
12228;SDS011;6177;52.402;9.800;2023-06-26T13:04:05;3.00;;;2.80;;
12228;SDS011;6177;52.402;9.800;2023-06-26T13:06:56;3.22;;;3.03;;
12228;SDS011;6177;52.402;9.800;2023-06-26T13:09:46;3.67;;;3.40;;
12228;SDS011;6177;52.402;9.800;2023-06-26T13:12:39;2.85;;;2.65;;
12228;SDS011;6177;52.402;9.800;2023-06-26T13:15:30;2.85;;;2.47;;
12228;SDS011;6177;52.402;9.800;2023-06-26T13:18:21;5.70;;;3.05;;
12228;SDS011;6177;52.402;9.800;2023-06-26T13:21:12;3.65;;;2.20;;
12228;SDS011;6177;52.402;9.800;2023-06-26T13:24:03;2.70;;;2.50;;
12228;SDS011;6177;52.402;9.800;2023-06-26T13:26:54;1.90;;;1.80;;
12228;SDS011;6177;52.402;9.800;2023-06-26T13:29:45;2.25;;;2.03;;
12228;SDS011;6177;52.402;9.800;2023-06-26T13:32:37;3.03;;;2.38;;
12228;SDS011;6177;52.402;9.800;2023-06-26T13:35:28;2.10;;;2.00;;
12228;SDS011;6177;52.402;9.800;2023-06-26T13:38:22;2.05;;;1.95;;
12228;SDS011;6177;52.402;9.800;2023-06-26T13:41:16;2.42;;;1.90;;
12228;SDS011;6177;52.402;9.800;2023-06-26T13:44:10;4.63;;;1.95;;
12228;SDS011;6177;52.402;9.800;2023-06-26T13:47:00;3.10;;;2.13;;
12228;SDS011;6177;52.402;9.800;2023-06-26T13:49:51;3.47;;;1.90;;
12228;SDS011;6177;52.402;9.800;2023-06-26T13:52:42;2.38;;;2.10;;
12228;SDS011;6177;52.402;9.800;2023-06-26T13:55:33;3.38;;;2.35;;
12228;SDS011;6177;52.402;9.800;2023-06-26T13:58:25;2.45;;;2.33;;
12228;SDS011;6177;52.402;9.800;2023-06-26T14:01:17;2.70;;;1.85;;
12228;SDS011;6177;52.402;9.800;2023-06-26T14:04:08;2.20;;;2.00;;
12228;SDS011;6177;52.402;9.800;2023-06-26T14:06:59;1.70;;;1.60;;
12228;SDS011;6177;52.402;9.800;2023-06-26T14:09:50;2.35;;;1.65;;
12228;SDS011;6177;52.402;9.800;2023-06-26T14:12:41;1.88;;;1.77;;
12228;SDS011;6177;52.402;9.800;2023-06-26T14:15:32;2.00;;;1.63;;
12228;SDS011;6177;52.402;9.800;2023-06-26T14:18:23;1.75;;;1.65;;
12228;SDS011;6177;52.402;9.800;2023-06-26T14:21:14;2.25;;;1.75;;
12228;SDS011;6177;52.402;9.800;2023-06-26T14:24:05;1.88;;;1.77;;
12228;SDS011;6177;52.402;9.800;2023-06-26T14:26:56;2.13;;;1.88;;
12228;SDS011;6177;52.402;9.800;2023-06-26T14:29:47;1.70;;;1.60;;
12228;SDS011;6177;52.402;9.800;2023-06-26T14:32:38;2.30;;;1.60;;
12228;SDS011;6177;52.402;9.800;2023-06-26T14:35:29;2.28;;;1.95;;
12228;SDS011;6177;52.402;9.800;2023-06-26T14:38:20;1.50;;;1.50;;
12228;SDS011;6177;52.402;9.800;2023-06-26T14:41:11;1.55;;;1.45;;
12228;SDS011;6177;52.402;9.800;2023-06-26T14:44:02;1.80;;;1.70;;
12228;SDS011;6177;52.402;9.800;2023-06-26T14:46:53;1.55;;;1.50;;
12228;SDS011;6177;52.402;9.800;2023-06-26T14:49:44;1.63;;;1.58;;
12228;SDS011;6177;52.402;9.800;2023-06-26T14:52:35;2.05;;;1.95;;
12228;SDS011;6177;52.402;9.800;2023-06-26T14:55:26;1.50;;;1.40;;
12228;SDS011;6177;52.402;9.800;2023-06-26T14:58:17;1.73;;;1.63;;
12228;SDS011;6177;52.402;9.800;2023-06-26T15:01:08;1.88;;;1.50;;
12228;SDS011;6177;52.402;9.800;2023-06-26T15:03:59;1.63;;;1.52;;
12228;SDS011;6177;52.402;9.800;2023-06-26T15:06:50;2.40;;;1.70;;
12228;SDS011;6177;52.402;9.800;2023-06-26T15:09:41;1.75;;;1.63;;
12228;SDS011;6177;52.402;9.800;2023-06-26T15:12:32;2.08;;;1.88;;
12228;SDS011;6177;52.402;9.800;2023-06-26T15:15:23;5.35;;;1.88;;
12228;SDS011;6177;52.402;9.800;2023-06-26T15:18:14;6.43;;;1.50;;
12228;SDS011;6177;52.402;9.800;2023-06-26T15:21:05;3.33;;;1.98;;
12228;SDS011;6177;52.402;9.800;2023-06-26T15:23:56;5.07;;;3.45;;
12228;SDS011;6177;52.402;9.800;2023-06-26T15:26:47;2.20;;;2.00;;
12228;SDS011;6177;52.402;9.800;2023-06-26T15:29:38;1.52;;;1.52;;
12228;SDS011;6177;52.402;9.800;2023-06-26T15:32:29;2.25;;;1.63;;
12228;SDS011;6177;52.402;9.800;2023-06-26T15:35:20;3.03;;;1.70;;
12228;SDS011;6177;52.402;9.800;2023-06-26T15:38:11;2.10;;;1.95;;
12228;SDS011;6177;52.402;9.800;2023-06-26T15:41:02;2.10;;;2.00;;
12228;SDS011;6177;52.402;9.800;2023-06-26T15:43:53;2.00;;;1.70;;
12228;SDS011;6177;52.402;9.800;2023-06-26T15:46:45;2.33;;;1.77;;
12228;SDS011;6177;52.402;9.800;2023-06-26T15:49:36;4.85;;;1.60;;
12228;SDS011;6177;52.402;9.800;2023-06-26T15:52:27;1.35;;;1.25;;
12228;SDS011;6177;52.402;9.800;2023-06-26T15:55:18;2.58;;;1.73;;
12228;SDS011;6177;52.402;9.800;2023-06-26T15:58:09;2.88;;;1.65;;
12228;SDS011;6177;52.402;9.800;2023-06-26T16:01:01;1.80;;;1.70;;
12228;SDS011;6177;52.402;9.800;2023-06-26T16:03:52;2.22;;;2.00;;
12228;SDS011;6177;52.402;9.800;2023-06-26T16:06:43;2.35;;;1.60;;
12228;SDS011;6177;52.402;9.800;2023-06-26T16:09:34;2.40;;;1.38;;
12228;SDS011;6177;52.402;9.800;2023-06-26T16:12:25;1.52;;;1.42;;
12228;SDS011;6177;52.402;9.800;2023-06-26T16:15:16;1.85;;;1.50;;
12228;SDS011;6177;52.402;9.800;2023-06-26T16:18:07;2.67;;;1.98;;
12228;SDS011;6177;52.402;9.800;2023-06-26T16:20:58;1.55;;;1.45;;
12228;SDS011;6177;52.402;9.800;2023-06-26T16:23:49;1.77;;;1.67;;
12228;SDS011;6177;52.402;9.800;2023-06-26T16:26:40;2.13;;;1.70;;
12228;SDS011;6177;52.402;9.800;2023-06-26T16:29:31;1.63;;;1.35;;
12228;SDS011;6177;52.402;9.800;2023-06-26T16:32:23;1.27;;;1.27;;
12228;SDS011;6177;52.402;9.800;2023-06-26T16:35:13;2.42;;;1.60;;
12228;SDS011;6177;52.402;9.800;2023-06-26T16:38:04;1.60;;;1.50;;
12228;SDS011;6177;52.402;9.800;2023-06-26T16:40:59;1.83;;;1.55;;
12228;SDS011;6177;52.402;9.800;2023-06-26T16:43:50;2.40;;;1.40;;
12228;SDS011;6177;52.402;9.800;2023-06-26T16:46:40;2.45;;;1.40;;
12228;SDS011;6177;52.402;9.800;2023-06-26T16:49:31;1.88;;;1.60;;
12228;SDS011;6177;52.402;9.800;2023-06-26T16:52:22;1.63;;;1.52;;
12228;SDS011;6177;52.402;9.800;2023-06-26T16:55:13;1.52;;;1.42;;
12228;SDS011;6177;52.402;9.800;2023-06-26T16:58:04;1.40;;;1.30;;
12228;SDS011;6177;52.402;9.800;2023-06-26T17:00:55;1.17;;;1.17;;
12228;SDS011;6177;52.402;9.800;2023-06-26T17:03:46;2.03;;;1.58;;
12228;SDS011;6177;52.402;9.800;2023-06-26T17:06:37;4.40;;;1.58;;
12228;SDS011;6177;52.402;9.800;2023-06-26T17:09:28;1.40;;;1.30;;
12228;SDS011;6177;52.402;9.800;2023-06-26T17:12:19;4.78;;;1.88;;
12228;SDS011;6177;52.402;9.800;2023-06-26T17:15:10;3.67;;;1.90;;
12228;SDS011;6177;52.402;9.800;2023-06-26T17:18:01;3.45;;;2.13;;
12228;SDS011;6177;52.402;9.800;2023-06-26T17:20:52;3.85;;;1.70;;
12228;SDS011;6177;52.402;9.800;2023-06-26T17:23:43;3.60;;;3.10;;
12228;SDS011;6177;52.402;9.800;2023-06-26T17:26:34;1.73;;;1.63;;
12228;SDS011;6177;52.402;9.800;2023-06-26T17:29:25;2.15;;;1.67;;
12228;SDS011;6177;52.402;9.800;2023-06-26T17:32:16;1.60;;;1.50;;
12228;SDS011;6177;52.402;9.800;2023-06-26T17:35:07;2.60;;;1.52;;